createdAt,value
2019-05-02T00:00:30.252Z,9.65
2019-05-02T00:02:59.865Z,9.68
2019-05-02T00:05:32.138Z,8.80
2019-05-02T00:08:00.399Z,9.48
2019-05-02T00:10:30.753Z,9.00
2019-05-02T00:13:00.111Z,7.75
2019-05-02T00:15:33.018Z,8.90
2019-05-02T00:18:01.367Z,8.68
2019-05-02T00:20:30.691Z,8.10
2019-05-02T00:22:59.766Z,8.30
2019-05-02T00:25:28.849Z,8.20
2019-05-02T00:27:57.803Z,7.95
2019-05-02T00:30:29.984Z,6.90
2019-05-02T00:32:58.246Z,7.62
2019-05-02T00:35:28.613Z,8.15
2019-05-02T00:38:02.403Z,7.08
2019-05-02T00:40:28.591Z,7.62
2019-05-02T00:42:58.335Z,8.18
2019-05-02T00:45:28.587Z,7.45
2019-05-02T00:48:12.418Z,6.87
2019-05-02T00:50:45.443Z,7.40
2019-05-02T00:53:13.480Z,6.58
2019-05-02T00:55:42.754Z,6.80
2019-05-02T00:58:11.751Z,7.33
2019-05-02T01:01:02.763Z,7.10
2019-05-02T01:03:34.009Z,7.12
2019-05-02T01:06:03.104Z,6.70
2019-05-02T01:08:35.698Z,6.80
2019-05-02T01:11:03.040Z,7.62
2019-05-02T01:13:32.140Z,7.35
2019-05-02T01:16:01.276Z,7.30
2019-05-02T01:18:30.450Z,6.80
2019-05-02T01:21:02.887Z,7.10
2019-05-02T01:23:30.193Z,7.50
2019-05-02T01:25:59.426Z,7.35
2019-05-02T01:28:36.399Z,7.17
2019-05-02T01:31:21.323Z,6.58
2019-05-02T01:34:01.792Z,6.83
2019-05-02T01:36:36.850Z,7.45
2019-05-02T01:39:08.768Z,6.37
2019-05-02T01:41:38.016Z,6.58
2019-05-02T01:44:07.191Z,6.80
2019-05-02T01:46:36.335Z,6.97
2019-05-02T01:49:05.643Z,6.72
2019-05-02T01:51:36.741Z,5.83
2019-05-02T01:54:10.066Z,6.60
2019-05-02T01:56:36.810Z,6.50
2019-05-02T01:59:05.891Z,6.03
2019-05-02T02:01:34.963Z,6.83
2019-05-02T02:04:04.124Z,6.55
2019-05-02T02:06:33.299Z,6.20
2019-05-02T02:09:03.465Z,6.30
2019-05-02T02:11:34.056Z,5.97
2019-05-02T02:14:07.447Z,7.05
2019-05-02T02:16:38.849Z,6.80
2019-05-02T02:19:20.510Z,6.53
2019-05-02T02:22:02.961Z,6.03
2019-05-02T02:24:34.912Z,6.10
2019-05-02T02:27:04.210Z,6.28
2019-05-02T02:29:33.458Z,6.00
2019-05-02T02:32:02.612Z,5.42
2019-05-02T02:34:32.454Z,5.90
2019-05-02T02:37:05.591Z,6.03
2019-05-02T02:39:32.452Z,5.70
2019-05-02T02:42:01.499Z,5.65
2019-05-02T02:44:52.681Z,5.35
2019-05-02T02:47:21.824Z,5.58
2019-05-02T02:49:55.850Z,5.35
2019-05-02T02:52:21.736Z,6.97
2019-05-02T02:54:50.841Z,6.83
2019-05-02T02:57:26.476Z,7.40
2019-05-02T02:59:50.796Z,7.62
2019-05-02T03:02:19.963Z,7.08
2019-05-02T03:04:49.046Z,6.45
2019-05-02T03:07:25.487Z,6.67
2019-05-02T03:09:49.019Z,5.62
2019-05-02T03:12:47.795Z,6.33
2019-05-02T03:15:27.187Z,5.95
2019-05-02T03:17:49.273Z,6.08
2019-05-02T03:20:18.374Z,6.70
2019-05-02T03:22:47.467Z,6.30
2019-05-02T03:25:18.372Z,8.05
2019-05-02T03:27:47.941Z,10.68
2019-05-02T03:30:30.967Z,11.28
2019-05-02T03:33:02.793Z,12.70
2019-05-02T03:35:19.726Z,12.63
2019-05-02T03:37:51.300Z,11.20
2019-05-02T03:40:21.103Z,7.30
2019-05-02T03:42:50.608Z,5.35
2019-05-02T03:45:19.772Z,5.60
2019-05-02T03:47:49.408Z,4.75
2019-05-02T03:50:31.632Z,5.37
2019-05-02T03:52:49.283Z,5.12
2019-05-02T03:55:23.903Z,5.42
2019-05-02T03:57:49.233Z,5.70
2019-05-02T04:00:20.756Z,4.80
2019-05-02T04:02:59.599Z,4.90
2019-05-02T04:05:20.382Z,4.90
2019-05-02T04:07:50.558Z,5.22
2019-05-02T04:11:11.061Z,4.80
2019-05-02T04:13:40.814Z,5.37
2019-05-02T04:16:15.530Z,5.33
2019-05-02T04:18:41.558Z,5.50
2019-05-02T04:21:10.708Z,5.30
2019-05-02T04:23:40.374Z,4.87
2019-05-02T04:26:12.832Z,4.80
2019-05-02T04:28:45.680Z,4.95
2019-05-02T04:31:11.067Z,5.47
2019-05-02T04:33:40.224Z,4.80
2019-05-02T04:36:15.515Z,4.83
2019-05-02T04:38:46.832Z,5.15
2019-05-02T04:41:11.066Z,5.45
2019-05-02T04:43:54.579Z,4.83
2019-05-02T04:46:31.283Z,5.00
2019-05-02T04:49:03.617Z,4.78
2019-05-02T04:51:32.624Z,4.80
2019-05-02T04:54:01.786Z,4.97
2019-05-02T04:56:31.049Z,4.40
2019-05-02T04:59:01.978Z,4.78
2019-05-02T05:01:42.045Z,4.58
2019-05-02T05:04:03.237Z,4.80
2019-05-02T05:06:32.547Z,4.70
2019-05-02T05:09:04.153Z,4.42
2019-05-02T05:11:32.491Z,4.60
2019-05-02T05:14:01.506Z,4.75
2019-05-02T05:16:30.587Z,4.53
2019-05-02T05:19:00.019Z,5.37
2019-05-02T05:21:29.363Z,4.87
2019-05-02T05:24:18.162Z,4.42
2019-05-02T05:26:50.836Z,5.12
2019-05-02T05:29:23.230Z,5.08
2019-05-02T05:31:54.967Z,4.67
2019-05-02T05:34:22.823Z,4.50
2019-05-02T05:36:52.079Z,4.55
2019-05-02T05:39:21.173Z,4.80
2019-05-02T05:41:52.320Z,5.60
2019-05-02T05:44:23.209Z,4.75
2019-05-02T05:46:51.847Z,4.70
2019-05-02T05:49:21.839Z,5.15
2019-05-02T05:51:54.326Z,5.00
2019-05-02T05:54:21.879Z,5.87
2019-05-02T05:56:50.964Z,5.00
2019-05-02T05:59:22.253Z,4.90
2019-05-02T06:01:51.653Z,4.95
2019-05-02T06:04:24.009Z,5.75
2019-05-02T06:06:54.058Z,5.85
2019-05-02T06:09:26.271Z,5.10
2019-05-02T06:11:55.375Z,5.37
2019-05-02T06:14:24.924Z,5.17
2019-05-02T06:16:54.755Z,5.28
2019-05-02T06:19:23.815Z,5.65
2019-05-02T06:21:52.841Z,4.78
2019-05-02T06:24:21.993Z,5.67
2019-05-02T06:26:51.870Z,5.12
2019-05-02T06:29:21.163Z,6.75
2019-05-02T06:31:50.304Z,5.00
2019-05-02T06:34:19.464Z,5.47
2019-05-02T06:36:48.615Z,5.58
2019-05-02T06:39:17.683Z,5.35
2019-05-02T06:41:46.759Z,5.12
2019-05-02T06:44:18.415Z,4.83
2019-05-02T06:46:46.757Z,5.33
2019-05-02T06:49:16.006Z,5.05
2019-05-02T06:51:45.048Z,4.58
2019-05-02T06:54:17.992Z,5.17
2019-05-02T06:56:47.980Z,4.72
2019-05-02T06:59:18.408Z,5.47
2019-05-02T07:01:46.560Z,4.47
2019-05-02T07:04:17.353Z,4.95
2019-05-02T07:06:58.126Z,5.20
2019-05-02T07:09:17.194Z,4.42
2019-05-02T07:11:57.119Z,5.15
2019-05-02T07:14:18.606Z,4.78
2019-05-02T07:16:58.223Z,4.97
2019-05-02T07:19:41.935Z,5.20
2019-05-02T07:22:11.075Z,4.67
2019-05-02T07:24:40.224Z,5.17
2019-05-02T07:27:09.222Z,4.70
2019-05-02T07:29:38.350Z,4.62
2019-05-02T07:32:07.775Z,4.90
2019-05-02T07:34:36.791Z,5.15
2019-05-02T07:37:08.545Z,5.17
2019-05-02T07:39:41.021Z,5.83
2019-05-02T07:42:07.912Z,4.62
2019-05-02T07:44:37.194Z,5.17
2019-05-02T07:47:06.344Z,5.20
2019-05-02T07:49:35.506Z,4.87
2019-05-02T07:52:04.674Z,5.53
2019-05-02T07:54:33.751Z,5.50
2019-05-02T07:57:02.775Z,5.30
2019-05-02T07:59:31.791Z,5.20
2019-05-02T08:02:00.935Z,6.83
2019-05-02T08:04:30.065Z,6.67
2019-05-02T08:06:59.191Z,6.78
2019-05-02T08:09:28.204Z,5.78
2019-05-02T08:11:57.295Z,6.90
2019-05-02T08:14:29.417Z,6.60
2019-05-02T08:17:05.364Z,7.22
2019-05-02T08:19:27.871Z,6.80
2019-05-02T08:21:56.956Z,6.58
2019-05-02T08:24:26.091Z,6.60
2019-05-02T08:27:06.481Z,6.50
2019-05-02T08:29:36.118Z,6.37
2019-05-02T08:32:05.292Z,6.28
2019-05-02T08:34:34.430Z,6.12
2019-05-02T08:37:05.075Z,6.75
2019-05-02T08:39:35.229Z,6.10
2019-05-02T08:42:05.139Z,6.30
2019-05-02T08:44:34.161Z,5.72
2019-05-02T08:47:03.300Z,6.20
2019-05-02T08:49:32.414Z,6.75
2019-05-02T08:52:01.580Z,7.53
2019-05-02T08:54:32.798Z,7.47
2019-05-02T08:57:01.460Z,7.20
2019-05-02T08:59:30.617Z,7.62
2019-05-02T09:01:59.687Z,7.90
2019-05-02T09:04:30.407Z,8.05
2019-05-02T09:07:00.801Z,8.05
2019-05-02T09:09:30.063Z,7.47
2019-05-02T09:12:09.702Z,8.43
2019-05-02T09:14:32.060Z,8.75
2019-05-02T09:17:08.853Z,7.80
2019-05-02T09:19:34.648Z,7.78
2019-05-02T09:22:02.616Z,8.03
2019-05-02T09:24:32.625Z,7.35
2019-05-02T09:27:02.534Z,7.33
2019-05-02T09:29:32.723Z,7.42
2019-05-02T09:32:02.251Z,7.97
2019-05-02T09:34:31.865Z,8.90
2019-05-02T09:37:02.731Z,8.58
2019-05-02T09:39:36.279Z,8.18
2019-05-02T09:42:06.651Z,8.18
2019-05-02T09:44:33.368Z,7.95
2019-05-02T09:47:02.535Z,7.78
2019-05-02T09:49:32.400Z,7.97
2019-05-02T09:52:03.356Z,7.67
2019-05-02T09:54:36.938Z,6.28
2019-05-02T09:57:03.423Z,7.25
2019-05-02T09:59:33.240Z,8.90
2019-05-02T10:02:05.228Z,8.15
2019-05-02T10:04:34.333Z,7.45
2019-05-02T10:07:03.530Z,7.65
2019-05-02T10:09:32.543Z,7.75
2019-05-02T10:12:02.147Z,8.10
2019-05-02T10:14:33.030Z,7.05
2019-05-02T10:17:06.913Z,7.03
2019-05-02T10:19:33.214Z,6.97
2019-05-02T10:22:02.395Z,7.25
2019-05-02T10:24:32.218Z,7.10
2019-05-02T10:27:04.209Z,7.10
2019-05-02T10:29:33.047Z,6.25
2019-05-02T10:32:02.323Z,7.03
2019-05-02T10:34:32.960Z,7.47
2019-05-02T10:37:03.078Z,7.28
2019-05-02T10:39:34.052Z,7.25
2019-05-02T10:42:03.366Z,7.15
2019-05-02T10:44:36.360Z,6.37
2019-05-02T10:47:03.338Z,6.08
2019-05-02T10:49:44.403Z,6.92
2019-05-02T10:52:13.347Z,7.05
2019-05-02T10:54:42.499Z,6.62
2019-05-02T10:57:12.631Z,6.87
2019-05-02T10:59:42.140Z,6.28
2019-05-02T11:02:29.399Z,6.42
2019-05-02T11:05:02.775Z,6.55
2019-05-02T11:07:32.638Z,6.15
2019-05-02T11:10:03.075Z,6.42
2019-05-02T11:12:47.294Z,5.37
2019-05-02T11:15:36.384Z,4.97
2019-05-02T11:18:05.655Z,5.95
2019-05-02T11:20:34.804Z,6.00
2019-05-02T11:23:03.969Z,5.90
2019-05-02T11:25:33.030Z,6.12
2019-05-02T11:28:06.956Z,5.50
2019-05-02T11:30:32.964Z,5.05
2019-05-02T11:33:03.098Z,5.10
2019-05-02T11:35:32.286Z,5.17
2019-05-02T11:38:02.483Z,5.28
2019-05-02T11:40:32.206Z,5.42
2019-05-02T11:43:02.769Z,5.75
2019-05-02T11:45:32.400Z,5.75
2019-05-02T11:48:08.910Z,6.15
2019-05-02T11:50:35.436Z,5.05
2019-05-02T11:53:02.966Z,6.17
2019-05-02T11:55:32.122Z,5.62
2019-05-02T11:58:07.904Z,5.90
2019-05-02T12:00:32.349Z,4.75
2019-05-02T12:03:19.020Z,5.28
2019-05-02T12:05:48.004Z,5.10
2019-05-02T12:08:17.140Z,4.53
2019-05-02T12:10:46.248Z,4.95
2019-05-02T12:13:16.121Z,4.40
2019-05-02T12:15:45.358Z,3.95
2019-05-02T12:18:14.339Z,4.72
2019-05-02T12:20:43.414Z,4.97
2019-05-02T12:23:12.985Z,4.67
2019-05-02T12:25:42.483Z,4.85
2019-05-02T12:28:11.986Z,4.40
2019-05-02T12:30:41.934Z,5.00
2019-05-02T12:33:12.386Z,4.90
2019-05-02T12:35:43.287Z,5.25
2019-05-02T12:38:12.539Z,4.12
2019-05-02T12:40:42.192Z,4.72
2019-05-02T12:43:12.122Z,4.85
2019-05-02T12:45:42.175Z,4.47
2019-05-02T12:48:12.922Z,4.20
2019-05-02T12:50:42.281Z,5.62
2019-05-02T12:53:12.609Z,4.40
2019-05-02T12:55:42.266Z,4.58
2019-05-02T12:58:12.477Z,5.30
2019-05-02T13:00:43.042Z,3.98
2019-05-02T13:03:31.696Z,5.00
2019-05-02T13:06:03.068Z,5.35
2019-05-02T13:08:32.341Z,4.30
2019-05-02T13:11:08.385Z,4.78
2019-05-02T13:13:37.457Z,4.70
2019-05-02T13:16:06.661Z,3.90
2019-05-02T13:18:37.274Z,4.20
2019-05-02T13:21:13.306Z,3.87
2019-05-02T13:23:53.716Z,3.95
2019-05-02T13:26:26.897Z,4.10
2019-05-02T13:28:53.572Z,4.28
2019-05-02T13:31:42.768Z,4.30
2019-05-02T13:34:18.205Z,3.83
2019-05-02T13:36:48.567Z,3.77
2019-05-02T13:39:42.377Z,3.62
2019-05-02T13:42:12.509Z,3.62
2019-05-02T13:44:57.674Z,3.55
2019-05-02T13:47:26.838Z,2.92
2019-05-02T13:49:59.126Z,3.00
2019-05-02T13:52:27.037Z,3.25
2019-05-02T13:54:56.124Z,2.92
2019-05-02T13:57:27.985Z,3.12
2019-05-02T13:59:56.967Z,2.45
2019-05-02T14:02:52.002Z,3.30
2019-05-02T14:05:22.247Z,3.47
2019-05-02T14:07:57.006Z,2.70
2019-05-02T14:10:32.130Z,2.83
2019-05-02T14:13:03.239Z,2.72
2019-05-02T14:15:38.464Z,2.60
2019-05-02T14:18:07.554Z,2.92
2019-05-02T14:20:37.522Z,3.65
2019-05-02T14:23:07.052Z,3.17
2019-05-02T14:25:55.229Z,2.62
2019-05-02T14:28:26.794Z,3.20
2019-05-02T14:30:54.965Z,2.65
2019-05-02T14:33:25.719Z,2.83
2019-05-02T14:35:54.779Z,3.20
2019-05-02T14:38:23.699Z,3.02
2019-05-02T14:41:12.900Z,3.33
2019-05-02T14:43:53.110Z,3.20
2019-05-02T14:46:29.058Z,2.83
2019-05-02T14:48:55.495Z,2.75
2019-05-02T14:51:27.571Z,3.10
2019-05-02T14:53:57.355Z,3.00
2019-05-02T14:56:32.994Z,3.02
2019-05-02T14:59:02.729Z,5.72
2019-05-02T15:01:32.254Z,3.17
2019-05-02T15:04:06.448Z,2.90
2019-05-02T15:06:33.763Z,2.70
2019-05-02T15:09:04.123Z,3.47
2019-05-02T15:11:34.983Z,3.58
2019-05-02T15:14:04.361Z,3.08
2019-05-02T15:16:42.196Z,3.27
2019-05-02T15:19:04.333Z,3.17
2019-05-02T15:21:47.070Z,3.00
2019-05-02T15:24:13.571Z,3.15
2019-05-02T15:26:42.666Z,3.20
2019-05-02T15:29:19.157Z,3.40
2019-05-02T15:31:48.003Z,3.17
2019-05-02T15:34:46.297Z,3.30
2019-05-02T15:37:06.892Z,3.60
2019-05-02T15:42:06.830Z,3.25
2019-05-02T15:44:35.821Z,2.98
2019-05-02T15:47:06.871Z,3.30
2019-05-02T15:49:45.805Z,3.50
2019-05-02T15:52:18.861Z,3.50
2019-05-02T15:54:55.542Z,3.35
2019-05-02T15:57:21.956Z,3.83
2019-05-02T15:59:51.547Z,4.30
2019-05-02T16:02:22.957Z,5.28
2019-05-02T16:04:52.322Z,4.50
2019-05-02T16:07:22.480Z,5.00
2019-05-02T16:09:55.867Z,5.17
2019-05-02T16:12:22.355Z,4.80
2019-05-02T16:14:52.768Z,4.35
2019-05-02T16:17:26.946Z,4.53
2019-05-02T16:20:06.995Z,5.15
2019-05-02T16:22:29.028Z,5.00
2019-05-02T16:24:58.183Z,5.35
2019-05-02T16:27:46.362Z,5.35
2019-05-02T16:30:19.705Z,5.47
2019-05-02T16:32:59.504Z,5.60
2019-05-02T16:35:29.742Z,4.97
2019-05-02T16:37:58.725Z,5.65
2019-05-02T16:40:30.145Z,4.90
2019-05-02T16:42:58.946Z,5.60
2019-05-02T16:45:27.969Z,5.67
2019-05-02T16:48:00.190Z,5.60
2019-05-02T16:50:33.002Z,5.50
2019-05-02T16:52:58.800Z,5.60
2019-05-02T16:55:27.872Z,5.65
2019-05-02T16:58:04.803Z,6.05
2019-05-02T17:00:28.809Z,5.50
2019-05-02T17:02:57.909Z,5.75
2019-05-02T17:05:27.068Z,6.15
2019-05-02T17:08:18.940Z,5.92
2019-05-02T17:10:53.725Z,5.50
2019-05-02T17:13:22.622Z,5.90
2019-05-02T17:15:52.260Z,6.15
2019-05-02T17:18:22.756Z,6.10
2019-05-02T17:20:56.488Z,6.00
2019-05-02T17:23:22.902Z,6.17
2019-05-02T17:25:52.219Z,5.65
2019-05-02T17:28:22.327Z,5.40
2019-05-02T17:30:52.426Z,6.37
2019-05-02T17:33:21.839Z,6.20
2019-05-02T17:35:52.312Z,5.78
2019-05-02T17:38:24.942Z,5.87
2019-05-02T17:40:54.487Z,6.03
2019-05-02T17:43:23.287Z,5.90
2019-05-02T17:45:52.367Z,5.65
2019-05-02T17:48:21.365Z,5.65
2019-05-02T17:51:18.912Z,5.65
2019-05-02T17:53:50.026Z,5.53
2019-05-02T17:56:20.585Z,6.42
2019-05-02T17:58:54.108Z,5.70
2019-05-02T18:01:33.344Z,6.20
2019-05-02T18:03:58.194Z,6.42
2019-05-02T18:06:33.007Z,6.12
2019-05-02T18:08:58.023Z,6.75
2019-05-02T18:11:29.678Z,5.50
2019-05-02T18:13:57.819Z,5.60
2019-05-02T18:16:26.746Z,5.58
2019-05-02T18:18:55.799Z,4.70
2019-05-02T18:21:28.651Z,5.08
2019-05-02T18:23:57.207Z,5.30
2019-05-02T18:26:26.397Z,5.33
2019-05-02T18:28:57.247Z,5.40
2019-05-02T18:31:26.167Z,5.12
2019-05-02T18:33:55.319Z,4.60
2019-05-02T18:36:26.863Z,4.90
2019-05-02T18:39:00.434Z,5.00
2019-05-02T18:41:26.007Z,5.17
2019-05-02T18:43:55.153Z,5.10
2019-05-02T18:46:24.313Z,5.92
2019-05-02T18:48:53.477Z,5.40
2019-05-02T18:51:22.522Z,4.85
2019-05-02T18:53:52.909Z,4.67
2019-05-02T18:56:22.330Z,4.90
2019-05-02T18:58:53.496Z,4.83
2019-05-02T19:01:22.503Z,4.72
2019-05-02T19:03:55.980Z,5.20
2019-05-02T19:06:22.375Z,4.85
2019-05-02T19:08:53.480Z,4.40
2019-05-02T19:11:26.709Z,3.98
2019-05-02T19:13:53.215Z,3.90
2019-05-02T19:16:27.211Z,4.83
2019-05-02T19:18:55.840Z,4.10
2019-05-02T19:21:26.401Z,4.28
2019-05-02T19:23:54.622Z,4.17
2019-05-02T19:26:23.723Z,4.30
2019-05-02T19:28:57.953Z,4.28
2019-05-02T19:31:32.079Z,4.47
2019-05-02T19:34:02.429Z,4.67
2019-05-02T19:36:32.825Z,4.67
2019-05-02T19:39:07.915Z,4.45
2019-05-02T19:41:32.854Z,4.53
2019-05-02T19:44:02.343Z,4.30
2019-05-02T19:46:37.395Z,5.05
2019-05-02T19:49:06.980Z,5.15
2019-05-02T19:51:33.185Z,5.37
2019-05-02T19:54:05.440Z,5.33
2019-05-02T19:56:43.269Z,6.08
2019-05-02T19:59:03.859Z,6.37
2019-05-02T20:01:33.170Z,5.58
2019-05-02T20:04:05.946Z,5.45
2019-05-02T20:06:33.305Z,7.00
2019-05-02T20:09:04.819Z,6.37
2019-05-02T20:11:34.418Z,6.30
2019-05-02T20:14:09.040Z,6.45
2019-05-02T20:16:43.359Z,5.53
2019-05-02T20:19:12.416Z,5.83
2019-05-02T20:22:04.822Z,6.53
2019-05-02T20:24:55.329Z,6.90
2019-05-02T20:27:22.627Z,6.45
2019-05-02T20:29:52.132Z,6.87
2019-05-02T20:32:22.111Z,7.05
2019-05-02T20:34:51.468Z,6.42
2019-05-02T20:37:22.170Z,6.95
2019-05-02T20:39:51.404Z,6.85
2019-05-02T20:42:20.478Z,6.53
2019-05-02T20:44:49.575Z,6.70
2019-05-02T20:47:23.820Z,7.03
2019-05-02T20:49:52.961Z,6.72
2019-05-02T20:52:22.887Z,6.33
2019-05-02T20:54:52.448Z,6.87
2019-05-02T20:57:21.835Z,6.87
2019-05-02T20:59:52.525Z,6.83
2019-05-02T21:02:22.797Z,7.33
2019-05-02T21:04:52.318Z,7.15
2019-05-02T21:07:38.568Z,7.20
2019-05-02T21:10:21.590Z,8.05
2019-05-02T21:12:52.463Z,7.35
2019-05-02T21:15:21.695Z,7.37
2019-05-02T21:17:51.119Z,7.42
2019-05-02T21:20:21.885Z,7.17
2019-05-02T21:22:52.763Z,7.90
2019-05-02T21:25:23.142Z,7.90
2019-05-02T21:27:52.493Z,7.85
2019-05-02T21:30:26.658Z,9.08
2019-05-02T21:32:56.085Z,8.58
2019-05-02T21:35:25.217Z,8.23
2019-05-02T21:37:54.315Z,8.60
2019-05-02T21:40:25.806Z,6.45
2019-05-02T21:42:54.254Z,5.65
2019-05-02T21:45:23.253Z,5.60
2019-05-02T21:47:52.744Z,4.85
2019-05-02T21:50:32.494Z,5.20
2019-05-02T21:53:22.182Z,6.67
2019-05-02T21:55:57.344Z,6.37
2019-05-02T21:58:26.322Z,5.47
2019-05-02T22:01:07.432Z,6.35
2019-05-02T22:03:36.822Z,6.03
2019-05-02T22:06:06.398Z,5.30
2019-05-02T22:08:35.411Z,5.35
2019-05-02T22:11:04.890Z,4.20
2019-05-02T22:13:33.943Z,4.72
2019-05-02T22:16:02.881Z,4.28
2019-05-02T22:18:32.246Z,4.85
2019-05-02T22:21:01.765Z,4.03
2019-05-02T22:23:31.813Z,4.25
2019-05-02T22:26:02.150Z,4.45
2019-05-02T22:28:32.682Z,4.25
2019-05-02T22:31:03.190Z,4.70
2019-05-02T22:33:32.884Z,3.58
2019-05-02T22:36:02.113Z,3.98
2019-05-02T22:38:44.224Z,3.98
2019-05-02T22:41:13.266Z,3.55
2019-05-02T22:43:42.346Z,3.83
2019-05-02T22:46:14.065Z,2.95
2019-05-02T22:48:43.365Z,2.50
2019-05-02T22:51:12.439Z,2.58
2019-05-02T22:53:41.773Z,2.83
2019-05-02T22:56:11.764Z,2.85
2019-05-02T22:58:42.119Z,2.90
2019-05-02T23:01:11.325Z,2.85
2019-05-02T23:03:41.862Z,2.83
2019-05-02T23:06:12.518Z,3.05
2019-05-02T23:08:43.485Z,2.92
2019-05-02T23:11:12.962Z,2.70
2019-05-02T23:13:42.369Z,3.10
2019-05-02T23:16:11.494Z,2.40
2019-05-02T23:18:42.485Z,2.70
2019-05-02T23:21:12.693Z,2.92
2019-05-02T23:23:41.936Z,2.22
2019-05-02T23:26:22.464Z,2.45
2019-05-02T23:28:52.036Z,2.35
2019-05-02T23:31:22.596Z,2.17
2019-05-02T23:34:02.085Z,2.27
2019-05-02T23:36:32.606Z,2.08
2019-05-02T23:39:02.057Z,2.00
2019-05-02T23:41:32.838Z,2.30
2019-05-02T23:44:02.825Z,1.80
2019-05-02T23:46:32.084Z,1.67
2019-05-02T23:49:02.019Z,1.98
2019-05-02T23:51:32.068Z,1.40
2019-05-02T23:54:02.150Z,1.50
2019-05-02T23:56:32.548Z,1.77
2019-05-02T23:59:02.770Z,1.50
